Aldebaran — C6BD5 — position and weather

sailwx.info

Track history (hours):
 
Tides and Currents Weather Stations Pressure Air Temp Water Temp Dewpoint Dewpoint Depression Visibility Wind Speed Wind Dir Waves Ship Positions

Aldebaran

Last reported at 2018-Apr-22 12:27 UTC. Time now 2018-Apr-24 01:06 UTC.
Position N 37°47' E 016°05'.

Length 183 m; draft 8 m.

Type: Tanker. MMSI: 311000232.

Date/timePositionNaut miles runAvg speedWind from/ knotsBaromVisibWave heightAir tempDewpointWater temp
2018-Apr-22 12:27N 37°47' E 016°05'612.5
2018-Apr-22 11:59N 37°43' E 015°59'612.5
2018-Apr-22 11:30N 37°39' E 015°54'612.4
2018-Apr-22 11:00N 37°35' E 015°48'612.3
2018-Apr-22 10:30N 37°31' E 015°42'912.1
2018-Apr-22 09:45N 37°25' E 015°33'512.3
2018-Apr-22 09:21N 37°21' E 015°29'412.4
2018-Apr-22 08:59N 37°18' E 015°25'  
2018-Apr-19 12:15N 37°08' E 023°47'5013.4
2018-Apr-19 08:32N 37°49' E 024°23'013.0
2018-Apr-19 08:30N 37°49' E 024°23'14213.2
2018-Apr-18 21:46N 39°54' E 025°49'1213.1
2018-Apr-18 20:50N 40°01' E 026°02'  
Track history (hours):
 
Tides and Currents Weather Stations Pressure Air Temp Water Temp Dewpoint Dewpoint Depression Visibility Wind Speed Wind Dir Waves Ship Positions

Aldebaran

Last reported at 2018-Apr-22 12:27 UTC. Time now 2018-Apr-24 01:06 UTC.
Position N 37°47' E 016°05'.

Length 183 m; draft 8 m.

Type: Tanker. MMSI: 311000232.

Date/timePositionNaut miles runAvg speedWind from/ knotsBaromVisibWave heightAir tempDewpointWater temp
2018-Apr-22 12:27N 37°47' E 016°05'612.5
2018-Apr-22 11:59N 37°43' E 015°59'612.5
2018-Apr-22 11:30N 37°39' E 015°54'612.4
2018-Apr-22 11:00N 37°35' E 015°48'612.3
2018-Apr-22 10:30N 37°31' E 015°42'912.1
2018-Apr-22 09:45N 37°25' E 015°33'512.3
2018-Apr-22 09:21N 37°21' E 015°29'412.4
2018-Apr-22 08:59N 37°18' E 015°25'  
2018-Apr-19 12:15N 37°08' E 023°47'5013.4
2018-Apr-19 08:32N 37°49' E 024°23'013.0
2018-Apr-19 08:30N 37°49' E 024°23'14213.2
2018-Apr-18 21:46N 39°54' E 025°49'1213.1
2018-Apr-18 20:50N 40°01' E 026°02'  

Dump ship's entire track history